createdAt,value
2023-05-21T00:00:34.191Z,99387.81
2023-05-21T00:03:42.581Z,99384.69
2023-05-21T00:06:47.069Z,99391.53
2023-05-21T00:09:51.323Z,99381.69
2023-05-21T00:12:55.438Z,99386.00
2023-05-21T00:15:59.423Z,99382.25
2023-05-21T00:19:04.457Z,99389.72
2023-05-21T00:22:09.079Z,99377.88
2023-05-21T00:25:13.710Z,99358.97
2023-05-21T00:28:17.832Z,99362.16
2023-05-21T00:31:22.793Z,99377.50
2023-05-21T00:34:27.253Z,99348.41
2023-05-21T00:37:35.344Z,99368.34
2023-05-21T00:40:42.133Z,99376.56
2023-05-21T00:43:47.596Z,99377.22
2023-05-21T00:46:54.403Z,99361.56
2023-05-21T00:49:58.766Z,99364.03
2023-05-21T00:53:03.838Z,99366.88
2023-05-21T00:56:08.738Z,99366.88
2023-05-21T00:59:12.831Z,99364.91
2023-05-21T01:02:19.088Z,99356.06
2023-05-21T01:05:23.853Z,99357.03
2023-05-21T01:08:29.720Z,99362.31
2023-05-21T01:11:44.710Z,99351.59
2023-05-21T01:14:49.717Z,99347.13
2023-05-21T01:17:54.049Z,99340.75
2023-05-21T01:20:58.211Z,99341.50
2023-05-21T01:24:06.361Z,99325.00
2023-05-21T01:27:11.426Z,99337.44
2023-05-21T01:30:17.293Z,99343.97
2023-05-21T01:33:30.885Z,99321.16
2023-05-21T01:36:42.904Z,99344.53
2023-05-21T01:39:56.660Z,99347.75
2023-05-21T01:43:01.149Z,99324.75
2023-05-21T01:46:06.843Z,99342.69
2023-05-21T01:49:12.301Z,99340.59
2023-05-21T01:52:16.781Z,99316.28
2023-05-21T01:55:26.320Z,99334.00
2023-05-21T01:58:30.808Z,99336.03
2023-05-21T02:01:36.483Z,99337.53
2023-05-21T02:04:42.393Z,99340.72
2023-05-21T02:07:47.131Z,99333.22
2023-05-21T02:10:52.396Z,99332.13
2023-05-21T02:13:58.076Z,99329.50
2023-05-21T02:17:02.455Z,99328.94
2023-05-21T02:20:17.508Z,99328.94
2023-05-21T02:23:22.257Z,99325.13
2023-05-21T02:26:26.330Z,99320.09
2023-05-21T02:29:30.776Z,99321.91
2023-05-21T02:32:35.796Z,99321.56
2023-05-21T02:35:39.959Z,99314.78
2023-05-21T02:38:44.335Z,99318.25
2023-05-21T02:41:48.520Z,99314.56
2023-05-21T02:44:53.361Z,99310.66
2023-05-21T02:48:18.246Z,99238.31
2023-05-21T02:51:24.446Z,99307.56
2023-05-21T02:54:28.704Z,99308.16
2023-05-21T02:57:33.342Z,99300.50
2023-05-21T03:00:40.779Z,99299.75
2023-05-21T03:03:47.164Z,99299.56
2023-05-21T03:06:56.043Z,99286.28
2023-05-21T03:10:03.738Z,99290.97
2023-05-21T03:13:09.960Z,99293.84
2023-05-21T03:16:15.128Z,99296.13
2023-05-21T03:19:20.067Z,99288.25
2023-05-21T03:22:24.843Z,99282.94
2023-05-21T03:25:29.471Z,99292.59
2023-05-21T03:28:35.879Z,99270.47
2023-05-21T03:31:42.150Z,99293.25
2023-05-21T03:34:48.333Z,99277.41
2023-05-21T03:37:54.922Z,99294.03
2023-05-21T03:41:01.327Z,99299.31
2023-05-21T03:44:09.524Z,99302.03
2023-05-21T03:47:33.926Z,99306.78
2023-05-21T03:50:39.528Z,99285.81
2023-05-21T03:53:44.364Z,99279.91
2023-05-21T03:56:48.834Z,99214.28
2023-05-21T03:59:55.078Z,99296.28
2023-05-21T04:03:03.298Z,99294.19
2023-05-21T04:06:14.694Z,99288.31
2023-05-21T04:09:24.027Z,99314.56
2023-05-21T04:12:29.211Z,99300.94
2023-05-21T04:15:39.750Z,99313.94
2023-05-21T04:18:47.700Z,99319.59
2023-05-21T04:21:53.583Z,99309.28
2023-05-21T04:25:00.455Z,99319.88
2023-05-21T04:28:11.174Z,99316.00
2023-05-21T04:31:15.963Z,99318.81
2023-05-21T04:34:23.063Z,99303.53
2023-05-21T04:37:28.791Z,99299.88
2023-05-21T04:40:36.632Z,99301.13
2023-05-21T04:43:45.570Z,99294.47
2023-05-21T04:46:57.792Z,99294.13
2023-05-21T04:50:03.169Z,99300.16
2023-05-21T04:53:08.217Z,99247.53
2023-05-21T04:56:13.038Z,99293.22
2023-05-21T04:59:18.411Z,99292.59
2023-05-21T05:02:24.820Z,99268.03
2023-05-21T05:05:29.021Z,99274.00
2023-05-21T05:08:33.107Z,99247.16
2023-05-21T05:11:37.438Z,99226.47
2023-05-21T05:14:51.843Z,99290.22
2023-05-21T05:17:57.559Z,99276.56
2023-05-21T05:21:02.916Z,99296.09
2023-05-21T05:24:08.104Z,99285.66
2023-05-21T05:27:15.069Z,99283.09
2023-05-21T05:30:22.079Z,99255.88
2023-05-21T05:33:29.031Z,99266.38
2023-05-21T05:36:34.817Z,99267.88
2023-05-21T05:39:40.517Z,99275.78
2023-05-21T05:42:45.252Z,99262.59
2023-05-21T05:45:55.040Z,99259.28
2023-05-21T05:48:59.779Z,99274.31
2023-05-21T05:52:04.763Z,99279.56
2023-05-21T05:55:09.925Z,99287.22
2023-05-21T05:58:16.865Z,99284.41
2023-05-21T06:01:32.990Z,99297.75
2023-05-21T06:04:38.782Z,99295.16
2023-05-21T06:07:43.433Z,99289.06
2023-05-21T06:10:47.449Z,99292.41
2023-05-21T06:13:53.818Z,99303.41
2023-05-21T06:16:58.666Z,99298.19
2023-05-21T06:20:06.252Z,99301.53
2023-05-21T06:23:12.391Z,99274.13
2023-05-21T06:26:19.991Z,99278.31
2023-05-21T06:29:25.862Z,99275.81
2023-05-21T06:32:31.686Z,99298.75
2023-05-21T06:35:37.992Z,99291.50
2023-05-21T06:38:43.935Z,99281.81
2023-05-21T06:41:49.446Z,99281.66
2023-05-21T06:45:20.371Z,99300.50
2023-05-21T06:48:28.039Z,99289.56
2023-05-21T06:51:32.476Z,99300.44
2023-05-21T06:54:37.309Z,99292.84
2023-05-21T06:57:44.741Z,99318.69
2023-05-21T07:02:19.952Z,99264.38
2023-05-21T07:05:01.874Z,99331.44
2023-05-21T07:08:11.343Z,99330.13
2023-05-21T07:11:23.097Z,99333.44
2023-05-21T07:14:32.774Z,99356.03
2023-05-21T07:17:42.466Z,99330.44
2023-05-21T07:20:57.863Z,99302.88
2023-05-21T07:24:05.726Z,99289.25
2023-05-21T07:27:25.924Z,99298.19
2023-05-21T07:30:32.458Z,99324.50
2023-05-21T07:33:45.735Z,99327.94
2023-05-21T07:36:56.010Z,99302.19
2023-05-21T07:40:00.343Z,99335.31
2023-05-21T07:43:09.412Z,99309.88
2023-05-21T07:46:20.067Z,99323.34
2023-05-21T07:49:27.677Z,99314.09
2023-05-21T07:52:32.305Z,99350.66
2023-05-21T07:55:43.872Z,99345.91
2023-05-21T07:58:51.250Z,99339.81
2023-05-21T08:01:58.914Z,99336.38
2023-05-21T08:05:13.950Z,99277.88
2023-05-21T08:08:19.985Z,99338.09
2023-05-21T08:11:25.390Z,99345.94
2023-05-21T08:14:30.149Z,99351.28
2023-05-21T08:17:34.739Z,99282.84
2023-05-21T08:20:39.204Z,99350.69
2023-05-21T08:23:45.786Z,99360.69
2023-05-21T08:26:51.473Z,99341.63
2023-05-21T08:29:56.422Z,99364.41
2023-05-21T08:33:01.123Z,99361.38
2023-05-21T08:36:11.361Z,99365.97
2023-05-21T08:39:23.068Z,99378.06
2023-05-21T08:42:36.868Z,99379.69
2023-05-21T08:45:47.765Z,99362.47
2023-05-21T08:48:57.745Z,99343.09
2023-05-21T08:52:03.883Z,99372.53
2023-05-21T08:55:09.553Z,99376.88
2023-05-21T08:58:16.993Z,99382.53
2023-05-21T09:01:24.140Z,99380.91
2023-05-21T09:04:37.867Z,99379.41
2023-05-21T09:07:54.380Z,99373.91
2023-05-21T09:11:09.700Z,99366.41
2023-05-21T09:14:25.039Z,99370.91
2023-05-21T09:17:39.420Z,99381.41
2023-05-21T09:21:30.218Z,99388.97
2023-05-21T09:24:46.982Z,99400.25
2023-05-21T09:27:52.092Z,99377.63
2023-05-21T09:30:57.853Z,99387.88
2023-05-21T09:34:02.352Z,99400.31
2023-05-21T09:37:23.555Z,99410.03
2023-05-21T09:40:32.716Z,99404.53
2023-05-21T09:43:38.895Z,99412.28
2023-05-21T09:46:43.491Z,99419.09
2023-05-21T09:49:47.723Z,99418.31
2023-05-21T09:52:56.164Z,99416.13
2023-05-21T09:56:01.389Z,99427.84
2023-05-21T09:59:05.302Z,99426.94
2023-05-21T10:02:27.806Z,99431.16
2023-05-21T10:05:32.566Z,99424.13
2023-05-21T10:08:38.540Z,99423.41
2023-05-21T10:11:45.778Z,99419.97
2023-05-21T10:14:55.145Z,99444.38
2023-05-21T10:18:00.729Z,99445.44
2023-05-21T10:21:09.987Z,99451.69
2023-05-21T10:24:14.667Z,99422.97
2023-05-21T10:27:19.507Z,99455.50
2023-05-21T10:30:25.756Z,99462.16
2023-05-21T10:33:30.974Z,99455.75
2023-05-21T10:36:38.201Z,99470.22
2023-05-21T10:39:44.698Z,99479.88
2023-05-21T10:43:19.264Z,99476.00
2023-05-21T10:46:26.139Z,99488.84
2023-05-21T10:49:44.347Z,99492.72
2023-05-21T10:53:17.910Z,99494.09
2023-05-21T10:56:26.094Z,99492.06
2023-05-21T10:59:48.432Z,99497.16
2023-05-21T11:02:53.917Z,99499.25
2023-05-21T11:05:58.967Z,99513.56
2023-05-21T11:09:22.990Z,99514.72
2023-05-21T11:12:28.210Z,99515.03
2023-05-21T11:15:32.147Z,99525.13
2023-05-21T11:18:39.306Z,99527.09
2023-05-21T11:21:43.726Z,99528.25
2023-05-21T11:24:50.530Z,99530.91
2023-05-21T11:27:55.113Z,99532.56
2023-05-21T11:31:24.617Z,99540.44
2023-05-21T11:34:38.454Z,99545.16
2023-05-21T11:37:44.553Z,99548.91
2023-05-21T11:40:55.809Z,99543.59
2023-05-21T11:44:03.037Z,99534.66
2023-05-21T11:47:08.504Z,99528.63
2023-05-21T11:50:17.631Z,99562.00
2023-05-21T11:53:22.247Z,99553.66
2023-05-21T11:56:32.699Z,99566.94
2023-05-21T11:59:38.013Z,99565.34
2023-05-21T12:03:02.877Z,99573.88
2023-05-21T12:06:07.668Z,99577.38
2023-05-21T12:09:12.481Z,99585.34
2023-05-21T12:12:22.216Z,99580.69
2023-05-21T12:15:29.362Z,99586.78
2023-05-21T12:18:34.093Z,99587.06
2023-05-21T12:21:39.345Z,99591.59
2023-05-21T12:24:49.333Z,99579.50
2023-05-21T12:27:59.030Z,99586.81
2023-05-21T12:31:09.105Z,99592.03
2023-05-21T12:34:15.139Z,99592.28
2023-05-21T12:37:23.025Z,99593.72
2023-05-21T12:40:46.200Z,99582.56
2023-05-21T12:43:53.514Z,99571.78
2023-05-21T12:46:58.689Z,99598.97
2023-05-21T12:50:03.912Z,99605.88
2023-05-21T12:53:15.952Z,99606.78
2023-05-21T12:56:20.010Z,99604.13
2023-05-21T12:59:23.944Z,99609.66
2023-05-21T13:02:42.430Z,99605.16
2023-05-21T13:05:49.067Z,99599.94
2023-05-21T13:08:56.676Z,99611.13
2023-05-21T13:12:07.018Z,99582.41
2023-05-21T13:15:11.552Z,99613.69
2023-05-21T13:18:17.132Z,99589.53
2023-05-21T13:21:23.345Z,99604.94
2023-05-21T13:24:37.934Z,99598.31
2023-05-21T13:27:48.522Z,99616.44
2023-05-21T13:30:57.653Z,99604.41
2023-05-21T13:34:02.057Z,99620.41
2023-05-21T13:37:09.439Z,99586.81
2023-05-21T13:40:19.113Z,99591.19
2023-05-21T13:43:26.987Z,99600.44
2023-05-21T13:46:31.648Z,99611.75
2023-05-21T13:49:37.489Z,99630.53
2023-05-21T13:52:47.552Z,99578.69
2023-05-21T13:55:53.007Z,99633.88
2023-05-21T13:58:59.094Z,99623.66
2023-05-21T14:02:05.805Z,99603.78
2023-05-21T14:05:27.311Z,99636.03
2023-05-21T14:08:34.302Z,99635.50
2023-05-21T14:11:50.713Z,99628.91
2023-05-21T14:14:54.825Z,99636.72
2023-05-21T14:18:04.811Z,99630.50
2023-05-21T14:21:11.443Z,99612.94
2023-05-21T14:24:24.366Z,99651.69
2023-05-21T14:27:28.977Z,99645.50
2023-05-21T14:30:34.848Z,99649.88
2023-05-21T14:33:46.694Z,99631.63
2023-05-21T14:36:56.768Z,99616.94
2023-05-21T14:40:02.317Z,99638.41
2023-05-21T14:43:09.600Z,99621.31
2023-05-21T14:46:16.803Z,99640.41
2023-05-21T14:49:21.512Z,99647.75
2023-05-21T14:52:39.870Z,99631.16
2023-05-21T14:55:46.877Z,99642.97
2023-05-21T14:58:51.041Z,99630.22
2023-05-21T15:01:57.703Z,99651.03
2023-05-21T15:05:05.046Z,99648.53
2023-05-21T15:08:10.617Z,99647.78
2023-05-21T15:11:16.731Z,99649.34
2023-05-21T15:14:21.822Z,99658.59
2023-05-21T15:17:31.705Z,99651.88
2023-05-21T15:20:36.015Z,99649.53
2023-05-21T15:23:45.896Z,99629.81
2023-05-21T15:26:53.357Z,99658.88
2023-05-21T15:29:57.845Z,99662.25
2023-05-21T15:33:02.449Z,99643.41
2023-05-21T15:36:06.741Z,99649.09
2023-05-21T15:39:10.748Z,99679.41
2023-05-21T15:42:15.128Z,99634.72
2023-05-21T15:45:19.520Z,99676.31
2023-05-21T15:48:23.929Z,99675.38
2023-05-21T15:51:27.970Z,99674.06
2023-05-21T15:54:32.301Z,99663.91
2023-05-21T15:57:36.344Z,99678.66
2023-05-21T16:00:41.945Z,99633.69
2023-05-21T16:03:49.000Z,99685.81
2023-05-21T16:06:53.453Z,99674.91
2023-05-21T16:09:58.073Z,99694.94
2023-05-21T16:13:02.317Z,99693.94
2023-05-21T16:16:06.790Z,99698.63
2023-05-21T16:19:14.731Z,99702.38
2023-05-21T16:22:18.708Z,99699.59
2023-05-21T16:25:22.717Z,99702.25
2023-05-21T16:28:27.449Z,99695.22
2023-05-21T16:31:31.929Z,99647.69
2023-05-21T16:34:37.010Z,99650.34
2023-05-21T16:37:41.682Z,99671.59
2023-05-21T16:40:46.569Z,99671.81
2023-05-21T16:43:50.676Z,99669.44
2023-05-21T16:46:54.840Z,99692.75
2023-05-21T16:49:59.289Z,99711.13
2023-05-21T16:53:03.822Z,99726.19
2023-05-21T16:56:07.892Z,99713.63
2023-05-21T16:59:11.960Z,99706.06
2023-05-21T17:02:15.910Z,99697.63
2023-05-21T17:05:20.086Z,99719.59
2023-05-21T17:08:24.602Z,99727.59
2023-05-21T17:11:28.800Z,99676.38
2023-05-21T17:14:34.625Z,99705.09
2023-05-21T17:17:39.065Z,99715.75
2023-05-21T17:20:44.587Z,99701.16
2023-05-21T17:23:48.597Z,99720.53
2023-05-21T17:26:54.056Z,99721.44
2023-05-21T17:29:58.458Z,99741.03
2023-05-21T17:33:05.418Z,99740.38
2023-05-21T17:36:09.349Z,99718.09
2023-05-21T17:39:13.257Z,99753.56
2023-05-21T17:42:18.542Z,99756.78
2023-05-21T17:45:22.686Z,99768.84
2023-05-21T17:48:26.967Z,99763.22
2023-05-21T17:51:32.348Z,99750.44
2023-05-21T17:54:36.414Z,99758.91
2023-05-21T17:57:40.353Z,99769.34
2023-05-21T18:00:44.346Z,99772.94
2023-05-21T18:03:48.604Z,99773.31
2023-05-21T18:06:52.648Z,99749.56
2023-05-21T18:09:57.099Z,99752.28
2023-05-21T18:13:01.627Z,99764.94
2023-05-21T18:16:06.337Z,99791.78
2023-05-21T18:19:10.558Z,99782.00
2023-05-21T18:22:14.613Z,99784.44
2023-05-21T18:25:19.221Z,99772.34
2023-05-21T18:28:23.766Z,99781.81
2023-05-21T18:31:27.997Z,99785.22
2023-05-21T18:34:32.439Z,99691.00
2023-05-21T18:37:38.168Z,99788.75
2023-05-21T18:40:45.408Z,99785.97
2023-05-21T18:43:49.416Z,99799.84
2023-05-21T18:46:54.351Z,99806.47
2023-05-21T18:49:58.844Z,99811.28
2023-05-21T18:53:02.723Z,99812.41
2023-05-21T18:56:08.258Z,99820.31
2023-05-21T18:59:12.290Z,99796.88
2023-05-21T19:02:16.321Z,99816.84
2023-05-21T19:05:20.678Z,99814.81
2023-05-21T19:08:24.569Z,99828.59
2023-05-21T19:11:33.496Z,99830.94
2023-05-21T19:14:37.668Z,99829.44
2023-05-21T19:17:41.990Z,99837.03
2023-05-21T19:20:48.369Z,99842.25
2023-05-21T19:23:54.537Z,99843.00
2023-05-21T19:26:58.522Z,99839.13
2023-05-21T19:30:02.484Z,99833.50
2023-05-21T19:33:10.585Z,99850.13
2023-05-21T19:36:15.400Z,99850.31
2023-05-21T19:39:19.990Z,99843.63
2023-05-21T19:42:24.566Z,99845.03
2023-05-21T19:45:28.630Z,99831.97
2023-05-21T19:48:32.552Z,99826.06
2023-05-21T19:51:36.742Z,99852.03
2023-05-21T19:54:40.801Z,99842.22
2023-05-21T19:57:44.777Z,99811.66
2023-05-21T20:00:49.447Z,99843.53
2023-05-21T20:03:53.471Z,99864.22
2023-05-21T20:06:57.546Z,99849.25
2023-05-21T20:10:01.644Z,99862.16
2023-05-21T20:13:09.605Z,99877.72
2023-05-21T20:16:13.656Z,99888.13
2023-05-21T20:19:17.710Z,99886.84
2023-05-21T20:22:22.604Z,99874.25
2023-05-21T20:25:26.721Z,99868.78
2023-05-21T20:28:30.762Z,99885.81
2023-05-21T20:31:35.154Z,99882.25
2023-05-21T20:34:47.254Z,99845.88
2023-05-21T20:38:17.933Z,99921.25
2023-05-21T20:41:51.246Z,99894.03
2023-05-21T20:44:59.990Z,99918.13
2023-05-21T20:48:04.168Z,99923.66
2023-05-21T20:51:08.877Z,99907.03
2023-05-21T20:54:12.924Z,99923.50
2023-05-21T20:57:17.435Z,99928.72
2023-05-21T21:00:21.806Z,99924.97
2023-05-21T21:03:26.466Z,99923.56
2023-05-21T21:06:32.470Z,99916.25
2023-05-21T21:09:37.292Z,99918.44
2023-05-21T21:12:41.283Z,99913.56
2023-05-21T21:15:45.335Z,99924.88
2023-05-21T21:18:49.206Z,99875.97
2023-05-21T21:21:53.603Z,99916.34
2023-05-21T21:24:57.580Z,99929.25
2023-05-21T21:28:02.573Z,99936.19
2023-05-21T21:31:06.703Z,99929.75
2023-05-21T21:34:12.851Z,99927.06
2023-05-21T21:37:19.500Z,99933.66
2023-05-21T21:40:23.676Z,99929.84
2023-05-21T21:43:28.026Z,99787.44
2023-05-21T21:46:32.325Z,99926.22
2023-05-21T21:49:36.826Z,99932.63
2023-05-21T21:52:41.343Z,99938.00
2023-05-21T21:55:45.255Z,99928.22
2023-05-21T21:58:49.209Z,99913.56
2023-05-21T22:01:53.231Z,99943.38
2023-05-21T22:04:57.316Z,99922.31
2023-05-21T22:08:01.377Z,99924.72
2023-05-21T22:11:05.505Z,99933.34
2023-05-21T22:14:09.409Z,99928.53
2023-05-21T22:17:14.749Z,99937.13
2023-05-21T22:20:19.234Z,99934.69
2023-05-21T22:23:23.124Z,99950.41
2023-05-21T22:26:27.436Z,99951.31
2023-05-21T22:29:31.748Z,99951.59
2023-05-21T22:32:35.778Z,99951.00
2023-05-21T22:35:39.898Z,99925.81
2023-05-21T22:38:44.664Z,99957.88
2023-05-21T22:41:48.550Z,99966.00
2023-05-21T22:44:53.144Z,99934.63
2023-05-21T22:48:02.482Z,99958.22
2023-05-21T22:51:08.743Z,99924.91
2023-05-21T22:54:12.894Z,99958.00
2023-05-21T22:57:17.075Z,99950.81
2023-05-21T23:00:21.215Z,99936.88
2023-05-21T23:03:25.226Z,99960.81
2023-05-21T23:06:29.324Z,99968.53
2023-05-21T23:09:33.413Z,99937.03
2023-05-21T23:12:38.257Z,99972.00
2023-05-21T23:15:44.400Z,99952.31
2023-05-21T23:18:49.528Z,99965.28
2023-05-21T23:21:53.493Z,99942.50
2023-05-21T23:24:57.608Z,99976.81
2023-05-21T23:28:02.094Z,99933.19
2023-05-21T23:31:07.000Z,99960.34
2023-05-21T23:34:11.015Z,99941.56
2023-05-21T23:37:15.337Z,99958.69
2023-05-21T23:40:19.481Z,99937.72
2023-05-21T23:43:24.640Z,99955.41
2023-05-21T23:46:29.178Z,99964.84
2023-05-21T23:49:33.644Z,99959.28
2023-05-21T23:52:38.374Z,99963.22
2023-05-21T23:55:42.750Z,99953.28
2023-05-21T23:58:46.754Z,99955.53
